ROMMA est une association bénévole à but non lucratif. Votre soutien est indispensable : ADHERER à ROMMA ou FAIRE un DON

Briord - (01, Ain)

Bugey (281 m)   Longitude: 05° 29' 13" E   Latitude: 45° 46' 37" N Station partenaire n°15
 

Détail journalier du     <<     >>

Température Precipitation Humidité Pression Vent Dir Rafale Dir. rafale Ensol.
Heure (°C) (mm) (%) (hPa) (km/h) (km/h) (min)
01:00 5.3094102300---0
02:00 5.1093102200---0
03:00 5.0094102202NNO0
04:00 5.0094102200---0
05:00 5.1094102200---0
06:00 4.5095102202SSE0
07:00 3.2094102200---0
08:00 4.80.295102200---30
09:00 7.8088102300---60
10:00 9.408410221---8S60
11:00 10.008410222NO15NO15
12:00 10.507810225NO18ONO5
13:00 11.007610219NO31NO0
14:00 11.7074102111NO26NNO0
15:00 11.6073102112NO29NO10
16:00 12.207210219NO26NNO5
17:00 11.7073102113NO24NO0
18:00 11.507410218NO24NO5
19:00 11.407310207NO19NO0
20:00 11.207410203NO15NO0
21:00 10.207710201NO10NNO0
22:00 8.00841021010NE0
23:00 7.208510214NE16NNE0
minuit 6.908310204NE15NE0

Graphique du 29-04-2019

 

Serveur OMMA